Flight Track Log - Related Links

Times and Time Zones

All times are in EDT time to prevent confusion due to time zone crossing. See the ASQ4219 flight status page for this flight to view local times or setup timezone preferences in your user account.

Time Position Orientation Groundspeed Altitude Reporting Facility
EDT Latitude Longitude Course Direction KTS MPH feet Rate Location/Type
Sat 06:59:11 PM 39.8667 -104.5667 95° East 198 228 7,300  Level Denver TRACON
Sat 06:59:42 PM 39.8547 -104.5292 113° Southeast 209 241 8,100 1,548 Climbing Denver Center
Sat 07:00:44 PM 39.8272 -104.4461 113° Southeast 247 284 9,700 1,659 Climbing Denver Center
Sat 07:01:00 PM 39.7895 -104.1739 96° East  Level FlightAware Approximate
Sat 07:01:45 PM 39.8075 -104.3311 103° East 306 352 11,500  Level Denver Center
Sat 07:02:00 PM 39.7667 -104.0105 90° East  Level FlightAware Approximate
Sat 07:02:47 PM 39.7956 -104.2172 98° East 320 368 13,100  Level Denver Center
Sat 07:03:00 PM 39.7536 -103.8453 99° East  Level FlightAware Approximate
Sat 07:03:48 PM 39.7817 -104.0997 99° East 329 379 14,900  Level Denver Center
Sat 07:04:00 PM 39.7289 -103.6828 95° East  Level FlightAware Approximate
Sat 07:04:50 PM 39.7683 -103.9675 97° East 344 396 16,800  Level Denver Center
Sat 07:05:52 PM 39.7533 -103.8472 99° East 340 391 18,400 1,659 Climbing Denver Center
Sat 07:06:53 PM 39.7400 -103.7211 98° East 342 394 20,200 1,610 Climbing Denver Center
Sat 07:07:55 PM 39.7303 -103.5994 96° East 338 389 21,700 1,306 Climbing Denver Center
Sat 07:08:57 PM 39.7206 -103.4719 96° East 352 405 22,900 1,122 Climbing Denver Center
Sat 07:09:58 PM 39.7089 -103.3369 96° East 370 426 24,000 1,024 Climbing Denver Center
Sat 07:11:00 PM 39.6972 -103.1961 96° East 391 450 25,000 968 Climbing Denver Center
Sat 07:12:02 PM 39.6856 -103.0519 96° East 402 463 26,000 1,073 Climbing Denver Center
Sat 07:13:03 PM 39.6711 -102.8736 96° East 413 475 27,200 1,073 Climbing Denver Center
Sat 07:14:05 PM 39.6578 -102.7222 96° East 422 486 28,200 1,065 Climbing Denver Center
Sat 07:15:07 PM 39.6450 -102.5789 97° East 427 491 29,400 1,317 Climbing Denver Center
Sat 07:16:08 PM 39.6300 -102.4114 97° East 420 483 30,900 1,220 Climbing Denver Center
Sat 07:17:10 PM 39.6169 -102.2672 97° East 422 486 31,900 1,016 Climbing Denver Center
Sat 07:18:12 PM 39.6014 -102.0983 97° East 422 486 33,000 976 Climbing Denver Center
Sat 07:19:13 PM 39.5894 -101.9517 96° East 427 491 33,900 878 Climbing Denver Center
Sat 07:20:15 PM 39.5750 -101.7825 96° East 425 489 34,800 532 Climbing Denver Center
Sat 07:21:17 PM 39.5636 -101.6331 96° East 433 498 35,000 98 Climbing Denver Center
Sat 07:22:18 PM 39.5500 -101.4533 96° East 448 516 35,000  Level Denver Center
Sat 07:23:20 PM 39.5508 -101.3014 90° East 443 510 35,000  Level Denver Center
Sat 07:24:22 PM 39.5514 -101.1472 90° East 449 517 35,000  Level Denver Center
Sat 07:25:23 PM 39.5522 -100.9708 90° East 443 510 35,000  Level Denver Center
Sat 07:26:25 PM 39.5536 -100.8194 89° East 441 507 35,000  Level Denver Center
Sat 07:27:27 PM 39.5558 -100.6436 89° East 440 506 35,000  Level Denver Center
Sat 07:28:28 PM 39.5567 -100.4925 90° East 441 507 35,000  Level Denver Center
Sat 07:29:30 PM 39.5544 -100.3167 91° East 439 505 35,000  Level Denver Center
Sat 07:30:32 PM 39.5522 -100.1681 91° East 434 499 35,000  Level Denver Center
Sat 07:31:34 PM 39.5392 -99.9917 95° East 443 510 35,000  Level Denver Center
Sat 07:32:35 PM 39.5169 -99.8361 100° East 434 499 35,000  Level Denver Center
Sat 07:33:37 PM 39.4931 -99.6808 101° East 435 501 35,000  Level Denver Center
Sat 07:34:39 PM 39.4697 -99.5261 101° East 438 504 35,000  Level Denver Center
Sat 07:35:41 PM 39.4450 -99.3769 102° East 441 507 35,000  Level Denver Center
Sat 07:36:43 PM 39.4192 -99.1975 101° East 451 519 35,000  Level Denver Center
Sat 07:37:45 PM 39.3939 -99.0425 102° East 457 526 35,000  Level Denver Center
Sat 07:38:38 PM 39.3706 -98.8947 101° East 465 535 35,000  Level Kansas City Center
Sat 07:39:39 PM 39.3422 -98.7158 102° East 456 525 35,000  Level Kansas City Center
Sat 07:40:41 PM 39.3172 -98.5519 101° East 457 526 35,000  Level Kansas City Center
Sat 07:41:42 PM 39.2928 -98.3994 102° East 460 529 35,000  Level Kansas City Center
Sat 07:42:44 PM 39.2658 -98.2400 102° East 458 527 35,000  Level Kansas City Center
Sat 07:43:45 PM 39.2383 -98.0753 102° East 455 524 35,000  Level Kansas City Center
Sat 07:44:47 PM 39.2089 -97.9039 102° East 461 531 35,000  Level Kansas City Center
Sat 07:45:48 PM 39.1828 -97.7383 101° East 459 528 35,000  Level Kansas City Center
Sat 07:46:50 PM 39.1561 -97.5831 102° East 464 534 35,000  Level Kansas City Center
Sat 07:47:51 PM 39.1247 -97.4011 102° East 466 536 35,000  Level Kansas City Center
Sat 07:48:52 PM 39.0981 -97.2436 102° East 469 540 35,000  Level Kansas City Center
Sat 07:49:54 PM 39.0658 -97.0608 103° East 470 541 35,000  Level Kansas City Center
Sat 07:50:55 PM 39.0383 -96.9042 103° East 470 541 35,000  Level Kansas City Center
Sat 07:51:56 PM 39.0117 -96.7489 102° East 467 537 35,000  Level Kansas City Center
Sat 07:52:58 PM 38.9778 -96.5617 103° East 468 539 35,000  Level Kansas City Center
Sat 07:53:59 PM 38.9497 -96.4131 104° East 465 535 35,000  Level Kansas City Center
Sat 07:55:00 PM 38.9186 -96.2333 102° East 463 533 35,000  Level Kansas City Center
Sat 07:56:02 PM 38.8881 -96.0817 104° East 460 529 35,000  Level Kansas City Center
Sat 07:57:03 PM 38.8603 -95.9314 103° East 454 522 35,000  Level Kansas City Center
Sat 07:58:04 PM 38.8286 -95.7575 103° East 452 520 35,000  Level Kansas City Center
Sat 07:59:05 PM 38.8008 -95.6106 104° East 447 514 35,000  Level Kansas City Center
Sat 08:00:07 PM 38.7686 -95.4400 104° East 444 511 35,000  Level Kansas City Center
Sat 08:01:08 PM 38.7394 -95.2950 104° East 440 506 35,000  Level Kansas City Center
Sat 08:02:09 PM 38.7078 -95.1269 104° East 438 504 35,000  Level Kansas City Center
Sat 08:03:10 PM 38.6800 -94.9844 104° East 434 499 35,000  Level Kansas City Center
Sat 08:04:11 PM 38.6519 -94.8425 104° East 432 497 35,000  Level Kansas City Center
Sat 08:05:13 PM 38.6200 -94.6794 104° East 427 491 35,000  Level Kansas City Center
Sat 08:06:14 PM 38.5919 -94.5394 104° East 426 490 35,000  Level Kansas City Center
Sat 08:07:15 PM 38.5589 -94.3742 104° East 431 496 35,000  Level Kansas City Center
Sat 08:08:16 PM 38.5297 -94.2319 105° East 433 498 35,000  Level Kansas City Center
Sat 08:09:17 PM 38.5003 -94.0878 105° East 437 503 35,000  Level Kansas City Center
Sat 08:10:19 PM 38.4678 -93.9369 105° East 442 509 35,000  Level Kansas City Center
Sat 08:11:20 PM 38.4364 -93.7844 105° East 444 511 35,000  Level Kansas City Center
Sat 08:12:21 PM 38.4042 -93.6311 105° East 447 514 35,000  Level Kansas City Center
Sat 08:13:22 PM 38.3667 -93.4444 104° East 452 520 35,000  Level Kansas City Center
Sat 08:14:23 PM 38.3333 -93.2889 105° East 453 521 35,000  Level Kansas City Center
Sat 08:15:25 PM 38.3011 -93.1331 105° East 454 522 35,000  Level Kansas City Center
Sat 08:16:26 PM 38.2689 -92.9767 105° East 453 521 35,000  Level Kansas City Center
Sat 08:17:27 PM 38.2356 -92.8208 105° East 455 524 35,000  Level Kansas City Center
Sat 08:18:29 PM 38.2019 -92.6639 105° East 457 526 35,000  Level Kansas City Center
Sat 08:19:30 PM 38.1728 -92.5247 105° East 453 521 35,000  Level Kansas City Center
Sat 08:20:31 PM 38.1333 -92.3417 105° East 450 518 35,000  Level Kansas City Center
Sat 08:21:33 PM 38.0981 -92.1881 106° East 453 521 35,000  Level Kansas City Center
Sat 08:22:34 PM 38.0642 -92.0392 106° East 452 520 35,000  Level Kansas City Center
Sat 08:23:35 PM 38.0297 -91.8867 106° East 449 517 35,000  Level Kansas City Center
Sat 08:24:36 PM 37.9956 -91.7342 106° East 448 516 35,000  Level Kansas City Center
Sat 08:25:38 PM 37.9608 -91.5831 106° East 447 514 35,000  Level Kansas City Center
Sat 08:26:39 PM 37.9256 -91.4308 106° East 447 514 35,000  Level Kansas City Center
Sat 08:27:40 PM 37.8900 -91.2789 106° East 448 516 35,000  Level Kansas City Center
Sat 08:28:42 PM 37.8550 -91.1275 106° East 449 517 35,000  Level Kansas City Center
Sat 08:29:43 PM 37.8139 -90.9519 106° East 449 517 35,000  Level Kansas City Center
Sat 08:30:44 PM 37.7778 -90.8014 107° East 450 518 35,000  Level Kansas City Center
Sat 08:31:45 PM 37.7419 -90.6522 107° East 448 516 35,000  Level Kansas City Center
Sat 08:32:47 PM 37.7067 -90.5014 106° East 450 518 35,000  Level Kansas City Center
Sat 08:33:48 PM 37.6706 -90.3511 107° East 451 519 35,000  Level Kansas City Center
Sat 08:34:49 PM 37.6342 -90.2019 107° East 449 517 35,000  Level Kansas City Center
Sat 08:35:51 PM 37.5978 -90.0511 107° East 450 518 35,000  Level Kansas City Center
Sat 08:36:52 PM 37.5547 -89.8781 107° East 451 519 35,000  Level Kansas City Center
Sat 08:37:53 PM 37.5156 -89.7272 108° East 452 520 35,000  Level Kansas City Center
Sat 08:38:54 PM 37.4758 -89.5767 108° East 451 519 35,000  Level Kansas City Center
Sat 08:39:56 PM 37.4356 -89.4294 109° East 448 516 35,000  Level Kansas City Center
Sat 08:40:57 PM 37.3953 -89.2800 109° East 448 516 35,000  Level Kansas City Center
Sat 08:41:58 PM 37.3542 -89.1314 109° East 447 514 35,000  Level Kansas City Center
Sat 08:42:44 PM 37.3247 -89.0214 109° East 441 507 35,000  Level Memphis Center
Sat 08:43:44 PM 37.2856 -88.8736 108° East 441 507 35,000  Level Memphis Center
Sat 08:44:44 PM 37.2461 -88.7336 109° East 441 507 35,000  Level Memphis Center
Sat 08:45:44 PM 37.2067 -88.5911 109° East 435 501 35,000  Level Memphis Center
Sat 08:46:44 PM 37.1672 -88.4514 109° East 425 489 35,000  Level Memphis Center
Sat 08:47:44 PM 37.1317 -88.3169 108° East 425 489 35,000  Level Memphis Center
Sat 08:48:44 PM 37.0875 -88.1700 111° Southeast 419 482 35,000  Level Memphis Center
Sat 08:49:44 PM 37.0497 -88.0333 109° East 419 482 35,000  Level Memphis Center
Sat 08:50:44 PM 37.0117 -87.9019 110° East 414 476 35,000  Level Memphis Center
Sat 08:51:44 PM 36.9781 -87.7833 109° East 404 465 35,000  Level Memphis Center
Sat 08:52:44 PM 36.9400 -87.6550 110° East 404 465 35,000  Level Memphis Center
Sat 08:53:44 PM 36.9017 -87.5239 110° East 404 465 35,000 -350 Level Memphis Center
Sat 08:54:44 PM 36.8653 -87.3931 109° East 404 465 34,300 -950 Descending Memphis Center
Sat 08:55:44 PM 36.8244 -87.2569 111° Southeast 409 471 33,100 -1,150 Descending Memphis Center
Sat 08:56:44 PM 36.7808 -87.1083 110° East 409 471 32,000 -1,150 Descending Memphis Center
Sat 08:57:44 PM 36.7419 -86.9753 110° East 409 471 30,800 -1,150 Descending Memphis Center
Sat 08:58:44 PM 36.7053 -86.8528 110° East 397 457 29,700 -1,150 Descending Memphis Center
Sat 08:59:44 PM 36.6658 -86.7200 110° East 397 457 28,500 -1,150 Descending Memphis Center
Sat 09:00:44 PM 36.6244 -86.5822 110° East 413 475 27,400 -1,250 Descending Memphis Center
Sat 09:01:44 PM 36.5825 -86.4472 111° Southeast 421 484 26,000 -1,300 Descending Memphis Center
Sat 09:02:44 PM 36.5497 -86.3325 110° East 408 470 24,800 -1,300 Descending Memphis Center
Sat 09:03:44 PM 36.5103 -86.2081 111° Southeast 396 456 23,400 -1,500 Descending Memphis Center
Sat 09:04:32 PM 36.4800 -86.1056 110° East 390 449 22,100 -1,266 Descending Indianapolis Center
Sat 09:05:33 PM 36.4419 -85.9786 110° East 388 447 21,100 -541 Descending Indianapolis Center
Sat 09:06:34 PM 36.4022 -85.8536 112° Southeast 386 444 21,000 -49 Descending Indianapolis Center
Sat 09:07:35 PM 36.3681 -85.7369 110° East 384 442 21,000  Level Indianapolis Center
Sat 09:08:36 PM 36.3278 -85.6119 112° Southeast 387 445 21,000  Level Indianapolis Center
Sat 09:09:37 PM 36.2792 -85.4581 111° Southeast 397 457 21,000  Level Indianapolis Center
Sat 09:10:37 PM 36.2397 -85.3294 111° Southeast 398 458 21,000 -545 Level Indianapolis Center
Sat 09:11:38 PM 36.1992 -85.2011 111° Southeast 398 458 19,900 -1,475 Descending Indianapolis Center
Sat 09:12:39 PM 36.1592 -85.0747 111° Southeast 393 452 18,000 -1,918 Descending Indianapolis Center
Sat 09:13:40 PM 36.1211 -84.9547 111° Southeast 375 432 16,000 -1,956 Descending Indianapolis Center
Sat 09:14:54 PM 36.0767 -84.8147 111° Southeast 370 426 13,600 -1,925 Descending Atlanta Center
Sat 09:15:54 PM 36.0397 -84.7064 113° Southeast 358 412 11,700 -1,300 Descending Atlanta Center
Sat 09:16:54 PM 36.0089 -84.6086 111° Southeast 332 382 11,000 -350 Descending Atlanta Center
Sat 09:17:54 PM 35.9803 -84.5133 110° East 305 351 11,000 -800 Level Atlanta Center
Sat 09:18:54 PM 35.9658 -84.4183 101° East 286 329 9,400 -1,800 Descending Atlanta Center
Sat 09:19:54 PM 35.9558 -84.3183 97° East 280 322 7,400 -1,600 Descending Atlanta Center
Sat 09:20:54 PM 35.9433 -84.2258 99° East 275 316 6,200 -1,200 Descending Atlanta Center
Sat 09:21:54 PM 35.9331 -84.1389 98° East 269 310 5,000 -1,050 Descending Atlanta Center
Sat 09:22:54 PM 35.9228 -84.0619 99° East 255 293 4,100 -950 Descending Atlanta Center
Sat 09:23:54 PM 35.9164 -83.9850 96° East 234 269 3,100 -700 Descending Atlanta Center
Sat 09:24:54 PM 35.8872 -83.9361 126° Southeast 182 209 2,700 -400 Descending Atlanta Center

Login

Don't have an account? Register now (free) for customized features, flight alerts, and more!